Time;durP1;ratioP1;P1;durP2;ratioP2;P2;SDS_P1;SDS_P2;PMS_P1;PMS_P2;Temp;Humidity;BMP_temperature;BMP_pressure;BME280_temperature;BME280_humidity;BME280_pressure;Samples;Min_cycle;Max_cycle;Signal;HPM_P1;HPM_P2
2022/05/24 00:00:11;;;;;;;23.60;18.60;;;;;;;17.70;63.73;99554.69;692328;28;1316;-77
2022/05/24 00:00:36;;;;;;;23.88;18.45;;;;;;;17.69;63.62;99548.53;690816;28;1217;-78
2022/05/24 00:00:56;;;;;;;24.27;18.42;;;;;;;17.70;63.76;99547.63;690763;28;1249;-79
2022/05/24 00:01:17;;;;;;;26.05;18.80;;;;;;;17.68;63.64;99546.78;690822;28;1080;-78
2022/05/24 00:01:38;;;;;;;25.52;19.13;;;;;;;17.79;63.51;99560.63;690911;28;796;-78
2022/05/24 00:01:59;;;;;;;25.38;18.95;;;;;;;17.71;63.52;99537.94;690719;28;1435;-77
2022/05/24 00:02:20;;;;;;;24.92;19.30;;;;;;;17.76;63.37;99550.13;690707;28;1294;-77
2022/05/24 00:02:41;;;;;;;24.70;18.40;;;;;;;17.74;63.37;99540.50;688115;28;1276;-78
2022/05/24 00:03:08;;;;;;;24.25;18.52;;;;;;;17.71;63.37;99543.22;685311;28;1080;-79
2022/05/24 00:03:28;;;;;;;25.02;18.05;;;;;;;17.79;63.41;99549.19;688088;28;1463;-78
2022/05/24 00:03:49;;;;;;;25.30;18.38;;;;;;;17.82;63.32;99554.41;690280;28;1367;-78
2022/05/24 00:04:10;;;;;;;26.17;19.10;;;;;;;17.76;63.33;99552.75;690824;28;1127;-78
2022/05/24 00:04:31;;;;;;;26.38;19.25;;;;;;;17.74;63.27;99541.38;688116;28;970;-79
2022/05/24 00:04:51;;;;;;;26.17;18.98;;;;;;;17.78;63.38;99552.75;684857;28;1399;-78
2022/05/24 00:05:12;;;;;;;24.67;18.10;;;;;;;17.75;63.21;99544.88;690682;28;1145;-78
2022/05/24 00:05:35;;;;;;;23.92;17.83;;;;;;;17.79;63.30;99543.91;695195;28;1293;-78
2022/05/24 00:05:55;;;;;;;23.20;16.92;;;;;;;17.78;63.30;99542.19;692935;28;1231;-78
2022/05/24 00:06:16;;;;;;;21.40;17.10;;;;;;;17.85;63.04;99553.47;690661;28;1249;-78
2022/05/24 00:06:38;;;;;;;21.88;17.08;;;;;;;17.74;63.21;99536.09;688049;28;886;-78
2022/05/24 00:06:59;;;;;;;23.50;17.73;;;;;;;17.81;63.32;99550.03;688032;28;1065;-77
2022/05/24 00:07:19;;;;;;;23.92;17.85;;;;;;;17.75;63.15;99537.84;690776;28;1194;-77
2022/05/24 00:07:40;;;;;;;23.50;17.92;;;;;;;17.82;63.08;99543.84;685365;28;1991;-78
2022/05/24 00:08:01;;;;;;;22.13;17.93;;;;;;;17.79;63.31;99544.81;684933;28;1264;-78
2022/05/24 00:08:31;;;;;;;22.67;17.60;;;;;;;17.79;63.29;99538.66;687982;28;1102;-77
2022/05/24 00:08:51;;;;;;;23.77;17.65;;;;;;;17.75;63.28;99537.84;687999;28;1187;-78
2022/05/24 00:09:12;;;;;;;22.65;17.45;;;;;;;17.81;63.29;99552.66;688086;28;966;-77
2022/05/24 00:09:32;;;;;;;24.50;17.20;;;;;;;17.79;63.16;99541.28;687726;28;846;-78
2022/05/24 00:09:53;;;;;;;24.63;17.85;;;;;;;17.75;63.22;99553.66;685121;28;1328;-78
2022/05/24 00:10:18;;;;;;;25.23;18.23;;;;;;;17.68;63.29;99530.97;687999;28;1170;-78
2022/05/24 00:10:39;;;;;;;23.70;17.80;;;;;;;17.77;63.34;99551.84;695516;28;1855;-78
2022/05/24 00:11:00;;;;;;;22.25;16.98;;;;;;;17.78;63.16;99545.69;696186;28;975;-77
2022/05/24 00:11:21;;;;;;;22.08;17.55;;;;;;;17.83;62.96;99534.16;693546;28;1430;-78
2022/05/24 00:11:42;;;;;;;21.38;17.60;;;;;;;17.81;62.90;99539.47;685579;28;1050;-78
2022/05/24 00:12:02;;;;;;;21.80;17.87;;;;;;;17.78;63.05;99540.41;685291;28;1212;-79
2022/05/24 00:12:23;;;;;;;22.27;17.60;;;;;;;17.71;63.15;99535.31;693437;28;1136;-78
2022/05/24 00:12:44;;;;;;;23.52;17.98;;;;;;;17.69;63.16;99532.69;687992;28;1508;-79
2022/05/24 00:13:05;;;;;;;23.25;17.40;;;;;;;17.74;63.21;99546.66;690586;28;1349;-78
2022/05/24 00:13:26;;;;;;;23.42;17.25;;;;;;;17.68;62.84;99537.13;688192;28;907;-78
2022/05/24 00:13:47;;;;;;;22.80;17.27;;;;;;;17.73;63.11;99544.03;688166;28;900;-77
2022/05/24 00:14:07;;;;;;;22.58;18.08;;;;;;;17.67;63.14;99532.75;687921;28;1256;-78
2022/05/24 00:15:23;;;;;;;21.90;16.80;;;;;;;17.75;63.03;99537.84;687801;28;1426;-78
2022/05/24 00:15:44;;;;;;;23.35;17.60;;;;;;;17.77;63.00;99538.66;693507;28;937;-79
2022/05/24 00:16:05;;;;;;;23.75;17.83;;;;;;;17.80;62.98;99543.91;690550;28;1444;-78
2022/05/24 00:16:26;;;;;;;21.33;17.23;;;;;;;17.77;63.06;99536.03;688166;28;900;-78
2022/05/24 00:16:47;;;;;;;20.17;16.70;;;;;;;17.78;62.97;99545.69;690760;28;1098;-78
2022/05/24 00:17:08;;;;;;;19.48;16.42;;;;;;;17.73;62.98;99539.66;690619;28;1105;-78
2022/05/24 00:17:29;;;;;;;20.20;16.55;;;;;;;17.68;63.03;99541.50;693486;28;1083;-78
2022/05/24 00:18:22;;;;;;;21.65;17.30;;;;;;;17.80;63.05;99551.81;693241;28;1196;-78
2022/05/24 00:18:43;;;;;;;25.73;17.88;;;;;;;17.73;62.81;99531.75;688182;28;1159;-78
2022/05/24 00:19:07;;;;;;;25.95;17.63;;;;;;;17.74;62.80;99530.84;690538;28;1244;-78
2022/05/24 00:19:28;;;;;;;21.48;16.55;;;;;;;17.72;62.88;99542.31;693195;28;1439;-78
2022/05/24 00:19:48;;;;;;;21.27;16.63;;;;;;;17.76;63.02;99544.00;687614;28;1228;-77
2022/05/24 00:20:10;;;;;;;19.90;16.35;;;;;;;17.74;63.04;99537.88;685705;28;1087;-77
2022/05/24 00:20:34;;;;;;;20.08;16.52;;;;;;;17.67;63.03;99523.94;684024;28;1366;-78
2022/05/24 00:20:58;;;;;;;20.35;16.70;;;;;;;17.73;63.01;99534.38;687973;28;1279;-78
2022/05/24 00:21:18;;;;;;;21.85;16.90;;;;;;;17.70;62.91;99531.78;688063;28;1219;-78
2022/05/24 00:21:39;;;;;;;22.90;17.05;;;;;;;17.74;63.07;99546.66;688033;28;1306;-77
2022/05/24 00:22:00;;;;;;;24.27;17.40;;;;;;;17.70;63.00;99533.56;685262;28;1182;-78
2022/05/24 00:22:21;;;;;;;22.70;17.17;;;;;;;17.67;63.00;99523.94;690750;28;1119;-78
2022/05/24 00:22:41;;;;;;;21.80;16.67;;;;;;;17.67;63.07;99529.22;690841;28;728;-77
2022/05/24 00:23:02;;;;;;;20.47;16.43;;;;;;;17.56;62.96;99531.22;690678;28;1073;-79
2022/05/24 00:23:26;;;;;;;20.90;16.48;;;;;;;17.64;63.31;99529.31;688044;28;1396;-78
2022/05/24 00:23:47;;;;;;;21.70;16.83;;;;;;;17.63;63.22;99522.25;687814;28;1408;-78
2022/05/24 00:24:07;;;;;;;23.23;16.50;;;;;;;17.62;62.98;99525.81;687998;28;1198;-78
2022/05/24 00:24:28;;;;;;;26.50;16.65;;;;;;;17.66;63.12;99538.03;687968;28;1318;-78
2022/05/24 00:24:49;;;;;;;25.85;16.48;;;;;;;17.61;63.11;99529.34;687611;28;1181;-78
2022/05/24 00:25:10;;;;;;;20.95;16.38;;;;;;;17.62;63.16;99531.06;687922;28;1248;-78
2022/05/24 00:25:34;;;;;;;21.15;16.42;;;;;;;17.62;63.02;99536.34;688025;28;1121;-78
2022/05/24 00:26:00;;;;;;;20.98;16.33;;;;;;;17.67;62.97;99537.13;690714;28;1081;-77
2022/05/24 00:26:28;;;;;;;22.00;16.50;;;;;;;17.60;63.12;99527.63;688006;28;1205;-77
2022/05/24 00:26:49;;;;;;;25.58;16.95;;;;;;;17.59;63.01;99536.44;690670;28;862;-77
2022/05/24 00:27:09;;;;;;;24.08;16.73;;;;;;;17.70;62.76;99542.34;687927;28;1047;-77
2022/05/24 00:27:31;;;;;;;22.90;16.40;;;;;;;17.64;63.19;99532.78;685196;28;1902;-77
2022/05/24 00:27:52;;;;;;;20.27;16.30;;;;;;;17.62;62.88;99520.53;685388;28;1041;-78
2022/05/24 00:28:15;;;;;;;20.58;16.40;;;;;;;17.68;62.96;99531.84;690708;28;910;-77
2022/05/24 00:28:36;;;;;;;21.35;16.38;;;;;;;17.62;62.88;99526.69;690785;28;854;-77
2022/05/24 00:28:57;;;;;;;21.70;16.00;;;;;;;17.63;63.11;99517.88;693347;28;1186;-78
2022/05/24 00:29:18;;;;;;;21.48;16.23;;;;;;;17.63;63.02;99533.69;689833;28;1268;-78
2022/05/24 00:29:40;;;;;;;21.13;16.60;;;;;;;17.62;62.97;99533.72;690104;28;1195;-78
2022/05/24 00:30:00;;;;;;;21.90;16.83;;;;;;;17.59;63.02;99528.53;687950;28;1128;-78
2022/05/24 00:30:21;;;;;;;22.45;16.73;;;;;;;17.57;63.10;99522.41;687938;28;1335;-78
2022/05/24 00:30:44;;;;;;;22.23;16.67;;;;;;;17.60;63.03;99527.63;685393;28;1193;-78
2022/05/24 00:31:05;;;;;;;20.30;16.42;;;;;;;17.66;63.06;99538.03;687949;28;1060;-79
2022/05/24 00:31:26;;;;;;;21.48;16.20;;;;;;;17.61;63.10;99531.97;688056;28;855;-78
2022/05/24 00:31:47;;;;;;;21.23;16.05;;;;;;;17.60;62.90;99527.63;690727;28;1211;-78
2022/05/24 00:32:08;;;;;;;22.20;16.45;;;;;;;17.60;63.06;99527.63;693198;28;1373;-78
2022/05/24 00:32:29;;;;;;;20.20;16.02;;;;;;;17.59;63.10;99531.16;685425;28;1195;-78
2022/05/24 00:32:50;;;;;;;21.43;16.30;;;;;;;17.67;63.05;99545.06;685274;28;1187;-78
2022/05/24 00:33:14;;;;;;;21.63;16.40;;;;;;;17.67;63.14;99548.56;687970;28;963;-78
2022/05/24 00:33:35;;;;;;;21.52;16.73;;;;;;;17.61;62.86;99539.91;690799;28;780;-78
2022/05/24 00:33:56;;;;;;;19.80;16.17;;;;;;;17.63;63.01;99532.81;688095;28;946;-77
2022/05/24 00:34:18;;;;;;;18.40;16.13;;;;;;;17.64;63.06;99542.50;687957;28;1258;-79
2022/05/24 00:34:39;;;;;;;19.42;16.35;;;;;;;17.64;62.85;99539.84;682732;29;784;-79
2022/05/24 00:34:59;;;;;;;20.90;16.55;;;;;;;17.63;63.01;99543.38;682878;28;1152;-79
2022/05/24 00:35:21;;;;;;;21.13;16.50;;;;;;;17.67;63.02;99545.94;685010;28;1044;-78
2022/05/24 00:35:42;;;;;;;20.77;16.27;;;;;;;17.66;63.07;99546.81;688146;28;777;-78
2022/05/24 00:36:03;;;;;;;20.63;16.30;;;;;;;17.66;63.06;99553.88;687147;28;1147;-78
2022/05/24 00:36:24;;;;;;;21.23;16.30;;;;;;;17.66;63.04;99554.72;690810;28;752;-78
2022/05/24 00:36:44;;;;;;;20.58;16.13;;;;;;;17.65;63.00;99552.13;684926;28;1244;-78
2022/05/24 00:37:05;;;;;;;21.80;16.10;;;;;;;17.62;62.83;99541.63;682482;28;1214;-77
2022/05/24 00:37:28;;;;;;;20.88;16.20;;;;;;;17.67;62.97;99560.88;685369;28;824;-78
2022/05/24 00:37:49;;;;;;;20.98;16.23;;;;;;;17.62;62.79;99544.28;680097;29;1346;-78
2022/05/24 00:38:12;;;;;;;20.05;16.13;;;;;;;17.61;62.85;99545.16;682653;29;977;-78
2022/05/24 00:38:38;;;;;;;21.67;15.95;;;;;;;17.58;62.97;99545.25;688018;28;1270;-79
2022/05/24 00:38:59;;;;;;;24.75;16.40;;;;;;;17.51;63.08;99539.22;687924;28;851;-78
2022/05/24 00:39:19;;;;;;;24.98;16.80;;;;;;;17.58;63.15;99545.25;685246;28;1337;-78
2022/05/24 00:39:40;;;;;;;20.70;16.63;;;;;;;17.54;63.30;99542.66;684833;28;852;-78
2022/05/24 00:40:01;;;;;;;21.43;17.07;;;;;;;17.62;63.03;99545.16;682542;29;1087;-78
2022/05/24 00:40:46;;;;;;;21.92;17.23;;;;;;;17.86;62.66;99563.13;682692;29;1036;-78
2022/05/24 00:41:22;;;;;;;19.77;16.20;;;;;;;17.72;62.83;99558.13;685957;28;1032;-79
2022/05/24 00:42:17;;;;;;;19.38;16.00;;;;;;;17.65;62.83;99542.44;687200;28;1251;-78
2022/05/24 00:42:40;;;;;;;22.30;15.68;;;;;;;17.67;63.16;99545.94;679890;29;1348;-77
2022/05/24 00:43:13;;;;;;;22.83;16.50;;;;;;;17.77;62.68;99558.91;682001;29;1263;-77
2022/05/24 00:43:40;;;;;;;20.00;16.25;;;;;;;17.70;62.53;99544.97;688028;28;1160;-78
2022/05/24 00:44:08;;;;;;;20.20;15.15;;;;;;;17.72;62.67;99551.09;690233;28;1248;-78
2022/05/24 00:44:34;;;;;;;19.75;15.07;;;;;;;17.45;63.03;99537.56;687898;28;1238;-77
2022/05/24 00:45:01;;;;;;;19.08;15.23;;;;;;;17.44;63.20;99548.19;690631;28;1037;-79
2022/05/24 00:45:54;;;;;;;20.23;15.80;;;;;;;17.46;63.60;99557.78;687094;28;1230;-78
2022/05/24 00:46:28;;;;;;;24.65;16.27;;;;;;;17.43;63.87;99554.31;690646;28;984;-77
2022/05/24 00:46:56;;;;;;;22.13;16.80;;;;;;;17.34;63.84;99537.78;690478;28;1989;-77
2022/05/24 00:47:33;;;;;;;18.52;15.73;;;;;;;17.35;63.93;99536.03;687196;28;1252;-78
2022/05/24 00:48:01;;;;;;;18.92;15.00;;;;;;;17.38;63.83;99555.31;687842;28;1400;-78
2022/05/24 00:48:28;;;;;;;19.55;15.77;;;;;;;17.30;64.05;99543.16;690614;28;1356;-77
2022/05/24 00:48:56;;;;;;;19.33;16.30;;;;;;;17.28;64.03;99530.03;690060;28;2062;-78
2022/05/24 00:49:27;;;;;;;20.20;16.60;;;;;;;17.34;64.07;99548.34;690510;28;1155;-79
2022/05/24 00:49:53;;;;;;;20.10;16.05;;;;;;;17.40;64.00;99552.66;690303;28;823;-78
2022/05/24 00:50:27;;;;;;;20.60;15.98;;;;;;;17.31;64.07;99536.97;687187;28;1208;-78
2022/05/24 00:50:49;;;;;;;20.95;16.55;;;;;;;17.26;63.96;99530.03;687122;28;942;-79
2022/05/24 00:51:15;;;;;;;21.63;16.88;;;;;;;17.37;64.24;99552.69;690618;28;1576;-79
2022/05/24 00:51:41;;;;;;;22.48;16.60;;;;;;;17.29;64.20;99539.66;692681;28;1280;-77
2022/05/24 00:52:08;;;;;;;22.05;17.00;;;;;;;17.48;64.04;99547.19;693287;28;1091;-78
2022/05/24 00:52:38;;;;;;;22.88;18.10;;;;;;;17.49;63.73;99547.19;692723;28;1105;-78
2022/05/24 00:53:06;;;;;;;21.95;17.90;;;;;;;17.45;63.86;99539.38;689978;28;1913;-78
2022/05/24 00:53:41;;;;;;;20.77;16.95;;;;;;;17.47;63.86;99556.91;685154;28;1110;-78
2022/05/24 00:54:02;;;;;;;24.73;17.15;;;;;;;17.49;63.81;99541.03;684446;28;1243;-78
2022/05/24 00:54:23;;;;;;;25.98;17.65;;;;;;;17.51;63.60;99539.22;687248;28;1325;-79
2022/05/24 00:54:44;;;;;;;24.95;17.83;;;;;;;17.59;63.67;99549.63;693510;28;780;-78
2022/05/24 00:55:08;;;;;;;24.23;18.08;;;;;;;17.62;63.68;99552.19;690564;28;1154;-78
2022/05/24 00:55:38;;;;;;;23.83;17.92;;;;;;;17.57;63.56;99540.88;685287;28;898;-79
2022/05/24 00:56:06;;;;;;;24.00;18.10;;;;;;;17.56;63.44;99540.00;687763;28;1327;-79
2022/05/24 00:56:45;;;;;;;23.98;18.10;;;;;;;17.65;63.51;99549.50;682584;29;1245;-78
2022/05/24 00:57:22;;;;;;;23.65;18.80;;;;;;;17.67;63.45;99545.06;690307;28;1175;-78
2022/05/24 00:58:16;;;;;;;23.38;19.30;;;;;;;17.70;63.31;99555.53;689632;28;1251;-78
2022/05/24 00:58:43;;;;;;;25.83;18.92;;;;;;;17.67;63.17;99550.31;682450;28;1442;-78
2022/05/24 00:59:06;;;;;;;27.92;19.67;;;;;;;17.60;63.43;99533.78;690524;28;1135;-78
2022/05/24 00:59:31;;;;;;;28.95;20.05;;;;;;;17.69;63.58;99553.78;690284;28;1075;-77
2022/05/24 01:00:01;;;;;;;27.52;20.27;;;;;;;17.45;63.64;99542.84;687596;28;1173;-78
2022/05/24 01:00:22;;;;;;;26.55;20.23;;;;;;;17.57;63.87;99552.28;690160;28;1165;-79
2022/05/24 01:00:44;;;;;;;26.73;19.70;;;;;;;17.53;63.82;99540.91;687190;28;1136;-79
2022/05/24 01:01:23;;;;;;;25.98;19.17;;;;;;;17.37;64.10;99536.88;687916;28;1080;-77
2022/05/24 01:01:47;;;;;;;24.65;19.05;;;;;;;17.37;64.28;99545.66;692848;28;1852;-78
2022/05/24 01:02:08;;;;;;;25.23;19.52;;;;;;;17.36;64.49;99546.56;687734;28;1211;-78
2022/05/24 01:02:29;;;;;;;25.55;19.35;;;;;;;17.44;64.40;99540.25;687972;28;1174;-78
2022/05/24 01:02:52;;;;;;;24.42;19.38;;;;;;;17.54;64.17;99549.72;690501;28;1228;-79
2022/05/24 01:03:13;;;;;;;24.75;18.73;;;;;;;17.52;64.03;99536.56;687432;28;1170;-78
2022/05/24 01:03:34;;;;;;;25.00;18.55;;;;;;;17.53;63.94;99543.56;687530;28;1399;-79
2022/05/24 01:03:55;;;;;;;27.25;18.70;;;;;;;17.45;64.05;99534.94;695564;28;1431;-78
2022/05/24 01:04:41;;;;;;;28.27;19.90;;;;;;;17.57;64.00;99539.09;690529;28;1354;-78
2022/05/24 01:05:05;;;;;;;26.48;19.80;;;;;;;17.57;64.09;99533.81;690068;28;1217;-78
2022/05/24 01:05:31;;;;;;;26.15;18.95;;;;;;;17.59;63.88;99549.63;690637;28;1307;-78
2022/05/24 01:05:51;;;;;;;25.63;18.42;;;;;;;17.52;63.78;99533.06;687436;28;1186;-78
2022/05/24 01:06:12;;;;;;;26.23;18.58;;;;;;;17.51;63.84;99534.81;690664;28;1092;-79
2022/05/24 01:06:32;;;;;;;29.30;18.73;;;;;;;17.61;63.89;99546.06;693483;28;1152;-78
2022/05/24 01:06:53;;;;;;;29.77;18.50;;;;;;;17.58;63.72;99538.19;692244;28;1430;-79
2022/05/24 01:07:14;;;;;;;30.25;19.23;;;;;;;17.54;63.71;99524.19;690633;28;1175;-78
2022/05/24 01:07:36;;;;;;;27.00;19.07;;;;;;;17.58;63.70;99535.56;693298;28;1883;-77
2022/05/24 01:07:57;;;;;;;25.42;19.42;;;;;;;17.63;63.76;99535.44;687830;28;1232;-79
2022/05/24 01:08:18;;;;;;;24.83;19.00;;;;;;;17.65;63.96;99546.88;687788;28;1253;-79
2022/05/24 01:08:40;;;;;;;25.67;18.63;;;;;;;17.60;63.76;99539.03;682683;29;1249;-78
2022/05/24 01:09:05;;;;;;;27.23;18.63;;;;;;;17.57;63.83;99527.69;687622;28;1289;-79
2022/05/24 01:09:35;;;;;;;27.48;18.30;;;;;;;17.64;64.09;99537.22;690468;28;2012;-77
2022/05/24 01:10:01;;;;;;;27.23;18.55;;;;;;;17.59;63.70;99526.75;690327;28;1104;-78
2022/05/24 01:10:30;;;;;;;26.67;18.77;;;;;;;17.68;63.88;99538.88;684818;28;1430;-78
2022/05/24 01:10:53;;;;;;;24.00;18.50;;;;;;;17.67;63.90;99535.38;687982;28;1060;-78
2022/05/24 01:11:15;;;;;;;25.80;18.60;;;;;;;17.65;63.96;99531.88;690608;28;945;-77
2022/05/24 01:11:45;;;;;;;28.00;19.45;;;;;;;17.67;63.42;99534.50;693319;28;1140;-78
2022/05/24 01:12:27;;;;;;;27.15;19.27;;;;;;;17.47;64.25;99533.16;695945;28;1349;-79
2022/05/24 01:13:09;;;;;;;25.67;19.00;;;;;;;17.34;64.37;99508.78;690112;28;1286;-77
2022/05/24 01:13:31;;;;;;;26.15;18.40;;;;;;;17.35;64.36;99523.72;687849;28;1028;-77
2022/05/24 01:13:54;;;;;;;25.73;18.20;;;;;;;17.42;64.20;99513.03;692382;28;1282;-78
2022/05/24 01:14:18;;;;;;;27.48;18.65;;;;;;;17.60;63.98;99517.94;687860;28;1277;-79
2022/05/24 01:14:39;;;;;;;26.45;18.63;;;;;;;17.68;63.56;99509.84;690537;28;1348;-78
2022/05/24 01:15:05;;;;;;;26.23;18.25;;;;;;;17.79;63.37;99510.50;685037;28;1353;-78
2022/05/24 01:15:26;;;;;;;24.70;18.00;;;;;;;17.88;63.11;99527.03;684609;28;1378;-78
2022/05/24 01:15:48;;;;;;;24.43;17.93;;;;;;;17.76;62.95;99505.28;682622;28;879;-77
2022/05/24 01:16:09;;;;;;;24.98;18.15;;;;;;;17.77;63.21;99514.06;687239;28;1205;-77
2022/05/24 01:16:31;;;;;;;24.35;18.23;;;;;;;17.68;63.25;99516.00;690117;28;1231;-77
2022/05/24 01:16:54;;;;;;;24.87;18.10;;;;;;;17.71;63.52;99517.72;685146;28;1128;-78
2022/05/24 01:17:15;;;;;;;27.30;18.23;;;;;;;17.59;63.42;99502.16;690516;28;1014;-79
2022/05/24 01:17:38;;;;;;;27.98;18.30;;;;;;;17.63;63.67;99515.22;685217;28;831;-78
2022/05/24 01:17:59;;;;;;;29.10;18.95;;;;;;;17.64;63.57;99519.59;690635;28;1103;-78
2022/05/24 01:18:23;;;;;;;27.73;18.97;;;;;;;17.60;63.53;99509.16;687271;28;1164;-77
2022/05/24 01:18:46;;;;;;;27.52;18.40;;;;;;;17.56;63.60;99508.34;687957;28;792;-78
2022/05/24 01:19:13;;;;;;;27.25;18.00;;;;;;;17.49;63.68;99506.72;687904;28;1257;-78
2022/05/24 01:19:45;;;;;;;30.80;19.90;;;;;;;17.62;63.83;99515.25;694862;27;20808;-80
2022/05/24 01:20:07;;;;;;;30.42;19.23;;;;;;;17.57;63.49;99517.13;692367;28;1135;-80
2022/05/24 01:20:28;;;;;;;29.25;18.65;;;;;;;17.54;63.98;99508.38;692760;28;1364;-80
2022/05/24 01:21:03;;;;;;;27.50;18.48;;;;;;;17.51;64.28;99526.91;695597;28;1248;-79
2022/05/24 01:21:23;;;;;;;25.90;18.27;;;;;;;17.38;64.14;99507.84;692738;28;1318;-80
2022/05/24 01:21:45;;;;;;;25.67;17.50;;;;;;;17.43;64.19;99517.41;690033;28;1350;-79
2022/05/24 01:22:12;;;;;;;26.55;18.35;;;;;;;17.44;64.37;99529.72;690035;28;991;-79
2022/05/24 01:22:45;;;;;;;27.92;18.95;;;;;;;17.41;64.52;99525.38;690211;28;819;-78
2022/05/24 01:23:46;;;;;;;30.75;18.75;;;;;;;17.41;64.48;99530.66;687302;28;1375;-80
2022/05/24 01:24:22;;;;;;;31.60;19.77;;;;;;;17.38;64.73;99531.56;687133;28;2044;-80
2022/05/24 01:24:59;;;;;;;30.17;19.50;;;;;;;17.29;64.73;99507.16;689999;28;1200;-79
2022/05/24 01:25:32;;;;;;;27.02;19.00;;;;;;;17.40;64.85;99528.91;687359;28;1319;-80
2022/05/24 01:25:58;;;;;;;25.08;18.42;;;;;;;17.39;64.75;99527.16;691651;28;1117;-80
2022/05/24 01:26:26;;;;;;;26.05;18.77;;;;;;;17.30;64.85;99516.78;687436;28;1071;-80
2022/05/24 01:26:49;;;;;;;27.02;18.55;;;;;;;17.45;64.88;99516.47;689381;28;1275;-80
2022/05/24 01:27:10;;;;;;;26.15;18.50;;;;;;;17.53;64.65;99532.16;692672;28;1287;-79
2022/05/24 01:27:31;;;;;;;27.77;19.08;;;;;;;17.55;64.24;99522.44;684568;28;1202;-79
2022/05/24 01:27:52;;;;;;;25.97;19.07;;;;;;;17.45;64.43;99513.84;687293;28;1047;-80
2022/05/24 01:28:21;;;;;;;26.10;19.25;;;;;;;17.45;64.72;99527.03;690177;28;968;-79
2022/05/24 01:28:50;;;;;;;24.83;18.23;;;;;;;17.34;64.94;99515.84;690106;28;1876;-79
2022/05/24 01:29:12;;;;;;;25.42;18.20;;;;;;;17.34;64.90;99515.84;686898;28;1114;-80
2022/05/24 01:29:33;;;;;;;25.00;18.58;;;;;;;17.36;64.77;99529.84;684329;28;938;-80
2022/05/24 01:29:54;;;;;;;25.20;18.30;;;;;;;17.32;65.04;99521.13;686658;28;1304;-80
2022/05/24 01:30:14;;;;;;;24.30;17.80;;;;;;;17.41;64.80;99514.81;682050;29;1158;-79
2022/05/24 01:30:35;;;;;;;24.80;17.75;;;;;;;17.48;64.50;99513.81;687401;28;1193;-80
2022/05/24 01:30:56;;;;;;;26.25;18.23;;;;;;;17.58;64.66;99516.25;692997;28;1165;-80
2022/05/24 01:31:17;;;;;;;27.60;19.10;;;;;;;17.75;64.12;99527.28;690219;28;1018;-80
2022/05/24 01:36:21;;;;;;;25.88;18.80;;;;;;;17.84;63.52;99520.94;691944;28;1071;-80
2022/05/24 01:36:42;;;;;;;26.48;19.13;;;;;;;17.86;63.51;99528.81;687006;28;1121;-80
2022/05/24 01:37:06;;;;;;;25.52;18.20;;;;;;;17.91;63.25;99534.88;687206;28;1328;-81
2022/05/24 01:37:30;;;;;;;24.85;17.55;;;;;;;17.90;63.35;99526.06;692899;28;819;-81
2022/05/24 01:37:52;;;;;;;26.30;18.45;;;;;;;17.89;63.31;99518.22;687240;28;1235;-80
2022/05/24 01:38:19;;;;;;;26.65;18.50;;;;;;;17.89;63.23;99513.78;690052;28;953;-80
2022/05/24 01:39:02;;;;;;;25.92;18.15;;;;;;;17.99;63.30;99532.91;690152;28;881;-80
2022/05/24 01:39:22;;;;;;;25.60;18.48;;;;;;;17.97;63.20;99528.56;687156;28;1971;-80
2022/05/24 01:39:47;;;;;;;25.30;18.65;;;;;;;17.88;63.20;99511.19;684069;28;1265;-80
2022/05/24 01:40:08;;;;;;;27.35;18.77;;;;;;;17.99;63.11;99535.56;691948;28;1392;-80
2022/05/24 01:40:30;;;;;;;28.58;18.88;;;;;;;17.97;63.16;99520.66;687332;28;1131;-80
2022/05/24 01:40:53;;;;;;;29.30;19.75;;;;;;;17.99;63.03;99529.41;689997;28;1388;-80
2022/05/24 01:41:19;;;;;;;27.83;19.20;;;;;;;17.93;62.99;99525.13;687378;28;1106;-79
2022/05/24 01:41:51;;;;;;;26.80;18.80;;;;;;;17.90;63.18;99517.31;684698;28;1288;-79
2022/05/24 01:42:12;;;;;;;27.85;18.30;;;;;;;17.92;63.06;99512.84;684693;28;1128;-80
2022/05/24 01:42:33;;;;;;;27.15;17.88;;;;;;;18.00;63.09;99532.00;687374;28;1161;-79
2022/05/24 01:42:54;;;;;;;26.75;18.45;;;;;;;18.05;63.06;99535.44;682144;28;1122;-80
2022/05/24 01:43:16;;;;;;;26.38;18.45;;;;;;;18.06;63.08;99536.28;685159;28;1184;-80
2022/05/24 01:43:39;;;;;;;27.70;18.77;;;;;;;18.06;62.82;99529.25;692753;28;1388;-80
2022/05/24 01:44:00;;;;;;;26.52;18.60;;;;;;;18.00;62.93;99526.75;692880;28;992;-80
2022/05/24 01:44:29;;;;;;;26.02;18.92;;;;;;;17.98;63.05;99519.75;687244;28;1637;-79
2022/05/24 01:45:20;;;;;;;25.90;17.88;;;;;;;18.02;63.08;99530.19;689263;28;1503;-80
2022/05/24 01:45:56;;;;;;;26.52;17.85;;;;;;;17.97;63.16;99533.84;690140;28;834;-79
2022/05/24 01:46:21;;;;;;;28.63;18.30;;;;;;;17.94;63.02;99530.38;689956;28;1137;-80
2022/05/24 01:46:45;;;;;;;28.73;18.95;;;;;;;17.90;63.15;99523.44;689957;28;819;-80
2022/05/24 01:47:06;;;;;;;27.17;18.88;;;;;;;17.90;63.21;99530.50;689832;28;1252;-79
2022/05/24 01:47:29;;;;;;;26.50;18.48;;;;;;;17.89;63.05;99539.31;692490;28;1204;-79
2022/05/24 01:47:55;;;;;;;26.67;18.70;;;;;;;17.92;63.30;99533.97;690031;28;1169;-80
2022/05/24 01:48:22;;;;;;;26.27;18.95;;;;;;;17.90;63.29;99533.13;687300;28;1339;-79
2022/05/24 01:48:50;;;;;;;28.02;19.00;;;;;;;17.90;63.22;99525.22;692767;28;1271;-78
2022/05/24 01:49:21;;;;;;;27.60;19.10;;;;;;;17.94;63.21;99532.16;690044;28;1436;-80
2022/05/24 01:49:46;;;;;;;28.60;19.60;;;;;;;17.90;63.15;99535.78;689050;28;1391;-79
2022/05/24 01:50:11;;;;;;;28.83;19.00;;;;;;;17.83;63.35;99518.34;682350;28;1072;-80
2022/05/24 01:50:35;;;;;;;27.65;18.23;;;;;;;17.79;63.47;99518.41;684527;28;1582;-80
2022/05/24 01:50:59;;;;;;;26.05;18.17;;;;;;;17.85;63.47;99527.06;689949;28;977;-79
2022/05/24 01:51:29;;;;;;;26.20;18.63;;;;;;;17.80;63.57;99532.47;687434;28;1363;-80
2022/05/24 01:52:03;;;;;;;26.08;18.88;;;;;;;17.75;63.74;99523.75;684670;28;1273;-80
2022/05/24 01:52:32;;;;;;;27.55;19.05;;;;;;;17.74;63.71;99517.63;682152;29;867;-80
2022/05/24 01:52:56;;;;;;;32.05;19.85;;;;;;;17.76;63.67;99523.75;684605;28;1232;-80
2022/05/24 01:53:21;;;;;;;32.22;20.10;;;;;;;17.79;63.64;99534.25;687352;28;1023;-79
2022/05/24 01:53:46;;;;;;;29.90;19.38;;;;;;;17.75;63.91;99527.28;688915;28;858;-80
2022/05/24 01:54:08;;;;;;;27.73;18.73;;;;;;;17.75;63.69;99524.66;689925;28;1265;-80
2022/05/24 01:54:30;;;;;;;26.52;18.45;;;;;;;17.70;63.83;99518.59;689579;28;1173;-80
2022/05/24 01:54:55;;;;;;;25.98;18.80;;;;;;;17.76;63.63;99522.91;687327;28;1162;-80
2022/05/24 01:55:48;;;;;;;24.85;19.00;;;;;;;17.75;63.78;99523.75;687218;28;1295;-80
2022/05/24 01:56:13;;;;;;;26.67;18.88;;;;;;;17.70;63.95;99523.88;684467;28;1107;-80
2022/05/24 01:56:47;;;;;;;25.92;18.48;;;;;;;17.76;63.86;99533.44;682356;28;907;-79
2022/05/24 01:57:19;;;;;;;25.55;17.90;;;;;;;17.67;64.22;99518.66;687336;28;1217;-80
2022/05/24 01:57:45;;;;;;;28.15;18.83;;;;;;;17.76;63.93;99529.03;687503;28;1411;-79
2022/05/24 01:58:12;;;;;;;28.63;19.80;;;;;;;17.69;64.20;99516.84;689533;28;1258;-80
2022/05/24 01:58:36;;;;;;;29.05;19.85;;;;;;;17.67;63.97;99518.66;684796;28;872;-80
2022/05/24 01:58:58;;;;;;;30.20;19.40;;;;;;;17.70;63.98;99523.88;684513;28;1283;-80
2022/05/24 01:59:20;;;;;;;29.90;19.25;;;;;;;17.72;64.17;99532.63;687071;28;1934;-80
2022/05/24 01:59:43;;;;;;;29.35;19.50;;;;;;;17.67;64.18;99510.75;684083;28;1383;-79
2022/05/24 02:00:08;;;;;;;28.00;19.23;;;;;;;17.73;64.14;99528.22;687220;28;1306;-80
2022/05/24 02:00:35;;;;;;;27.85;19.20;;;;;;;17.67;64.19;99523.94;687388;28;906;-80
2022/05/24 02:01:02;;;;;;;28.00;19.27;;;;;;;17.78;64.32;99534.28;681952;29;1222;-79
2022/05/24 02:01:40;;;;;;;28.35;19.60;;;;;;;17.66;64.33;99530.97;687339;28;1146;-79
2022/05/24 02:02:00;;;;;;;27.83;19.42;;;;;;;17.65;64.24;99512.56;690452;28;1141;-79
2022/05/24 02:02:22;;;;;;;26.92;19.50;;;;;;;17.76;64.19;99533.44;688110;28;1290;-80
2022/05/24 02:02:44;;;;;;;26.05;19.13;;;;;;;17.78;64.36;99532.47;690027;28;1455;-79
2022/05/24 02:03:04;;;;;;;28.08;19.38;;;;;;;17.70;64.33;99518.59;684557;28;1254;-80